Oakland County International Airport
KPTK : now visible

Airfield :











YOU CAN JOIN US ON...

 
LOGIN :

Register | Disclaimer

   EN    FR    IT 

 









Legend :    VFR   Marginal VFR   IFR   Intensive IFR   Very Intensive IFR
Visi :
Ceiling :
>= 8 km
>= 3000ft
5 to 8 km
1000 to 3000 ft
1500m to 5 km
500 to 1000 ft
800 to 1500m
200 to 500 ft
< 800m
< 200 ft
Symbols :   Thunderstorms  Fog  Heavy snow  Heavy precipitations  Wind > 20 kt






- Airport Elevation : 980 ft


KPTK - Oakland County International

CURRENT METAR :
  • 251553Z 19004KT 10SM SCT140 BKN190 BKN250 27/16 A3006 RMK AO2 SLP170 T02670161

EXPIRED METARs :
  • 251453Z VRB03KT 10SM FEW130 BKN180 BKN250 26/18 A3005 RMK AO2 SLP169 T02610183 51009
  • 251353Z 23006KT 10SM BKN180 BKN250 24/18 A3005 RMK AO2 SLP168 T02440183

TAF KPTK
Valid from the 25 at 15:00 until the 26 at 12:00 UTC


251514Z 2515/2612 19004KT P6SM BKN150 BKN250
FM251700 17007KT P6SM BKN050 BKN150
TEMPO 2520/2524 6SM TSRA BKN045CB
FM260100 15003KT P6SM BKN100
TEMPO 2609/2612 4SM BR
KZOB FIR / North America



MET'MAP, your aeronautical weather chart ! - Copyright ORBIFLY December 2007 - Disclaimer

ORBIFLY MET'MAP TEAM :

Programming & Development : Alexandra Zaïnal
Concept & original design : Baudouin d'Aumeries
Assistance for programming : Marc-Olivier Méhu
Technical & hardware support : Manuel Goepfert

Contact : metmap@orbifly.com




SOURCES & CREDITS :

   NOAA       Earth
Advisory